createdAt,value
2022-10-12T00:00:58.288Z,8.70
2022-10-12T00:03:26.485Z,11.70
2022-10-12T00:06:04.632Z,8.80
2022-10-12T00:08:33.268Z,15.07
2022-10-12T00:11:01.376Z,14.13
2022-10-12T00:13:29.628Z,14.63
2022-10-12T00:15:57.858Z,12.37
2022-10-12T00:18:25.884Z,12.33
2022-10-12T00:21:02.531Z,10.10
2022-10-12T00:23:33.061Z,11.63
2022-10-12T00:26:05.076Z,12.17
2022-10-12T00:28:33.919Z,10.33
2022-10-12T00:31:02.725Z,12.07
2022-10-12T00:33:30.854Z,10.17
2022-10-12T00:35:58.968Z,9.23
2022-10-12T00:38:27.177Z,8.33
2022-10-12T00:40:56.601Z,8.80
2022-10-12T00:43:28.800Z,10.63
2022-10-12T00:45:57.367Z,11.40
2022-10-12T00:48:25.913Z,10.93
2022-10-12T00:50:54.798Z,11.77
2022-10-12T00:53:27.465Z,13.30
2022-10-12T00:56:01.701Z,13.13
2022-10-12T00:58:31.597Z,12.50
2022-10-12T01:01:02.388Z,15.13
2022-10-12T01:03:30.794Z,12.87
2022-10-12T01:05:59.137Z,11.37
2022-10-12T01:08:27.657Z,9.73
2022-10-12T01:10:57.608Z,9.57
2022-10-12T01:13:25.861Z,13.50
2022-10-12T01:16:00.693Z,10.63
2022-10-12T01:18:33.586Z,9.73
2022-10-12T01:21:11.708Z,9.33
2022-10-12T01:24:06.683Z,11.00
2022-10-12T01:27:01.964Z,10.50
2022-10-12T01:29:44.997Z,9.70
2022-10-12T01:32:20.275Z,9.90
2022-10-12T01:34:54.206Z,11.07
2022-10-12T01:37:31.459Z,16.47
2022-10-12T01:40:04.002Z,11.90
2022-10-12T01:42:38.179Z,11.20
2022-10-12T01:45:08.127Z,12.30
2022-10-12T01:47:40.126Z,26.00
2022-10-12T01:50:12.232Z,10.87
2022-10-12T01:52:47.789Z,15.37
2022-10-12T01:55:27.782Z,11.57
2022-10-12T01:58:13.435Z,12.13
2022-10-12T02:00:45.461Z,13.50
2022-10-12T02:03:20.808Z,8.47
2022-10-12T02:05:58.219Z,11.93
2022-10-12T02:08:29.465Z,10.73
2022-10-12T02:11:01.616Z,9.07
2022-10-12T02:13:34.437Z,9.43
2022-10-12T02:16:08.909Z,8.20
2022-10-12T02:18:43.620Z,9.00
2022-10-12T02:21:17.366Z,9.63
2022-10-12T02:23:47.138Z,11.13
2022-10-12T02:26:16.968Z,10.53
2022-10-12T02:28:46.625Z,9.73
2022-10-12T02:31:24.720Z,14.37
2022-10-12T02:34:01.643Z,15.67
2022-10-12T02:36:37.647Z,13.33
2022-10-12T02:39:13.538Z,12.23
2022-10-12T02:41:48.660Z,8.17
2022-10-12T02:44:21.570Z,11.57
2022-10-12T02:46:50.828Z,10.90
2022-10-12T02:49:20.888Z,9.57
2022-10-12T02:51:49.345Z,9.57
2022-10-12T02:54:17.620Z,11.63
2022-10-12T02:56:47.008Z,12.87
2022-10-12T02:59:15.963Z,15.50
2022-10-12T03:01:44.290Z,12.00
2022-10-12T03:04:12.506Z,10.13
2022-10-12T03:06:42.807Z,14.70
2022-10-12T03:09:11.100Z,12.03
2022-10-12T03:11:43.780Z,12.63
2022-10-12T03:14:12.641Z,10.27
2022-10-12T03:16:40.854Z,11.17
2022-10-12T03:19:09.095Z,15.43
2022-10-12T03:21:37.174Z,10.17
2022-10-12T03:24:06.993Z,17.90
2022-10-12T03:26:35.355Z,13.10
2022-10-12T03:29:03.939Z,18.30
2022-10-12T03:31:32.082Z,13.87
2022-10-12T03:34:00.317Z,14.27
2022-10-12T03:36:28.478Z,14.70
2022-10-12T03:38:56.750Z,12.93
2022-10-12T03:41:26.257Z,11.37
2022-10-12T03:43:54.322Z,13.60
2022-10-12T03:46:22.372Z,11.30
2022-10-12T03:48:50.393Z,15.33
2022-10-12T03:51:18.460Z,16.73
2022-10-12T03:53:46.498Z,15.43
2022-10-12T03:56:14.593Z,13.50
2022-10-12T03:58:44.117Z,11.47
2022-10-12T04:01:12.253Z,15.20
2022-10-12T04:03:40.331Z,14.43
2022-10-12T04:06:08.816Z,18.87
2022-10-12T04:08:36.836Z,12.53
2022-10-12T04:11:04.888Z,16.83
2022-10-12T04:13:33.020Z,17.33
2022-10-12T04:16:04.915Z,17.07
2022-10-12T04:18:32.992Z,16.37
2022-10-12T04:21:01.292Z,17.10
2022-10-12T04:23:29.507Z,13.93
2022-10-12T04:25:57.540Z,13.17
2022-10-12T04:28:25.698Z,12.90
2022-10-12T04:30:53.748Z,16.10
2022-10-12T04:33:23.181Z,13.63
2022-10-12T04:35:51.260Z,21.47
2022-10-12T04:38:19.316Z,23.30
2022-10-12T04:40:49.019Z,15.47
2022-10-12T04:43:17.612Z,14.83
2022-10-12T04:45:45.831Z,19.57
2022-10-12T04:48:13.870Z,14.43
2022-10-12T04:50:44.152Z,13.70
2022-10-12T04:53:12.230Z,25.13
2022-10-12T04:55:40.268Z,11.97
2022-10-12T04:58:08.376Z,14.90
2022-10-12T05:00:36.573Z,11.77
2022-10-12T05:03:04.711Z,14.53
2022-10-12T05:05:34.422Z,14.47
2022-10-12T05:08:04.320Z,18.13
2022-10-12T05:10:32.726Z,11.47
2022-10-12T05:13:00.746Z,14.23
2022-10-12T05:15:28.897Z,11.57
2022-10-12T05:17:56.937Z,12.50
2022-10-12T05:20:25.045Z,13.70
2022-10-12T05:22:53.137Z,11.57
2022-10-12T05:25:22.611Z,11.70
2022-10-12T05:27:50.633Z,12.40
2022-10-12T05:30:19.012Z,16.93
2022-10-12T05:32:47.047Z,14.27
2022-10-12T05:35:15.160Z,12.70
2022-10-12T05:37:43.237Z,11.80
2022-10-12T05:40:12.224Z,13.53
2022-10-12T05:42:41.834Z,10.47
2022-10-12T05:45:11.385Z,21.80
2022-10-12T05:47:40.016Z,10.63
2022-10-12T05:50:09.513Z,11.67
2022-10-12T05:52:37.934Z,15.67
2022-10-12T05:55:06.995Z,13.87
2022-10-12T05:57:35.068Z,16.07
2022-10-12T06:00:06.432Z,12.63
2022-10-12T06:02:34.485Z,15.40
2022-10-12T06:05:02.651Z,13.03
2022-10-12T06:07:30.714Z,13.97
2022-10-12T06:09:58.826Z,14.60
2022-10-12T06:12:27.999Z,16.87
2022-10-12T06:14:56.029Z,14.23
2022-10-12T06:17:25.497Z,14.83
2022-10-12T06:19:53.525Z,17.17
2022-10-12T06:22:21.587Z,18.03
2022-10-12T06:24:49.647Z,17.23
2022-10-12T06:27:19.934Z,13.20
2022-10-12T06:29:48.216Z,12.53
2022-10-12T06:32:19.256Z,17.37
2022-10-12T06:34:48.855Z,12.10
2022-10-12T06:37:44.388Z,16.03
2022-10-12T06:40:06.020Z,13.43
2022-10-12T06:42:34.193Z,14.67
2022-10-12T06:45:02.248Z,13.70
2022-10-12T06:47:30.260Z,15.03
2022-10-12T06:49:59.713Z,16.97
2022-10-12T06:52:27.801Z,12.83
2022-10-12T06:54:55.853Z,12.47
2022-10-12T06:57:23.925Z,11.30
2022-10-12T06:59:51.941Z,11.50
2022-10-12T07:02:20.045Z,14.07
2022-10-12T07:04:51.290Z,13.13
2022-10-12T07:07:21.022Z,12.63
2022-10-12T07:09:49.261Z,10.63
2022-10-12T07:12:17.604Z,10.23
2022-10-12T07:14:46.087Z,13.50
2022-10-12T07:17:14.603Z,12.60
2022-10-12T07:19:42.743Z,17.57
2022-10-12T07:22:10.855Z,13.27
2022-10-12T07:24:40.596Z,11.93
2022-10-12T07:27:11.708Z,12.47
2022-10-12T07:29:40.981Z,18.70
2022-10-12T07:32:09.515Z,11.83
2022-10-12T07:34:37.582Z,11.40
2022-10-12T07:37:05.786Z,8.93
2022-10-12T07:39:33.845Z,17.70
2022-10-12T07:42:03.315Z,17.40
2022-10-12T07:44:31.809Z,9.00
2022-10-12T07:46:59.861Z,17.93
2022-10-12T07:49:27.972Z,12.67
2022-10-12T07:51:56.081Z,10.30
2022-10-12T07:54:29.211Z,9.10
2022-10-12T07:56:57.879Z,15.17
2022-10-12T07:59:27.589Z,16.43
2022-10-12T08:01:55.742Z,12.33
2022-10-12T08:04:23.895Z,17.20
2022-10-12T08:06:52.036Z,9.87
2022-10-12T08:09:20.299Z,10.77
2022-10-12T08:11:48.340Z,10.77
2022-10-12T08:14:17.821Z,12.97
2022-10-12T08:16:47.488Z,11.77
2022-10-12T08:19:15.730Z,11.03
2022-10-12T08:21:43.944Z,13.80
2022-10-12T08:24:14.005Z,21.00
2022-10-12T08:26:42.242Z,12.93
2022-10-12T08:29:11.811Z,8.30
2022-10-12T08:31:41.205Z,8.70
2022-10-12T08:34:11.025Z,6.77
2022-10-12T08:36:39.452Z,9.00
2022-10-12T08:39:08.779Z,7.57
2022-10-12T08:41:47.139Z,6.77
2022-10-12T08:44:29.448Z,6.70
2022-10-12T08:47:00.736Z,9.10
2022-10-12T08:49:32.808Z,8.57
2022-10-12T08:52:04.989Z,6.73
2022-10-12T08:54:39.997Z,24.07
2022-10-12T08:57:16.636Z,11.00
2022-10-12T08:59:45.155Z,10.80
2022-10-12T09:02:32.652Z,11.77
2022-10-12T09:05:07.119Z,10.50
2022-10-12T09:07:39.311Z,8.33
2022-10-12T09:10:20.162Z,4.97
2022-10-12T09:13:01.277Z,10.37
2022-10-12T09:15:34.020Z,5.37
2022-10-12T09:18:04.004Z,6.20
2022-10-12T09:20:40.946Z,5.10
2022-10-12T09:23:23.895Z,4.73
2022-10-12T09:25:52.136Z,3.50
2022-10-12T09:28:27.055Z,7.00
2022-10-12T09:31:07.668Z,5.20
2022-10-12T09:33:43.181Z,5.37
2022-10-12T09:36:18.461Z,7.67
2022-10-12T09:38:46.988Z,7.90
2022-10-12T09:41:21.687Z,7.30
2022-10-12T09:43:52.351Z,3.97
2022-10-12T09:46:26.402Z,5.33
2022-10-12T09:48:58.771Z,4.43
2022-10-12T09:51:30.637Z,6.70
2022-10-12T09:54:03.635Z,7.07
2022-10-12T09:56:41.660Z,7.70
2022-10-12T09:59:27.235Z,8.30
2022-10-12T10:02:00.809Z,9.00
2022-10-12T10:04:30.386Z,10.50
2022-10-12T10:07:15.340Z,7.67
2022-10-12T10:09:44.049Z,7.87
2022-10-12T10:12:24.075Z,7.43
2022-10-12T10:14:53.207Z,3.77
2022-10-12T10:17:27.445Z,8.60
2022-10-12T10:19:58.540Z,7.20
2022-10-12T10:22:28.339Z,3.07
2022-10-12T10:25:00.510Z,7.40
2022-10-12T10:27:37.531Z,4.72
2022-10-12T10:30:29.898Z,5.45
2022-10-12T10:33:13.010Z,3.47
2022-10-12T10:35:41.139Z,8.53
2022-10-12T10:38:16.973Z,6.35
2022-10-12T10:40:52.005Z,5.70
2022-10-12T10:43:27.556Z,5.28
2022-10-12T10:45:58.441Z,5.07
2022-10-12T10:48:30.651Z,5.85
2022-10-12T10:51:01.635Z,3.70
2022-10-12T10:53:35.275Z,6.57
2022-10-12T10:56:06.931Z,7.70
2022-10-12T10:58:39.559Z,9.97
2022-10-12T11:01:16.856Z,4.88
2022-10-12T11:03:52.531Z,3.75
2022-10-12T11:06:37.412Z,2.92
2022-10-12T11:09:13.177Z,4.95
2022-10-12T11:11:44.144Z,7.13
2022-10-12T11:14:17.055Z,5.88
2022-10-12T11:16:48.280Z,3.45
2022-10-12T11:19:26.048Z,10.88
2022-10-12T11:21:57.977Z,8.00
2022-10-12T11:24:34.695Z,10.65
2022-10-12T11:27:10.149Z,6.15
2022-10-12T11:29:38.888Z,2.53
2022-10-12T11:32:14.930Z,2.25
2022-10-12T11:34:50.623Z,4.30
2022-10-12T11:37:21.986Z,7.22
2022-10-12T11:39:57.791Z,4.38
2022-10-12T11:42:32.268Z,9.38
2022-10-12T11:45:03.167Z,3.88
2022-10-12T11:47:37.437Z,6.25
2022-10-12T11:50:08.564Z,7.78
2022-10-12T11:52:39.499Z,5.55
2022-10-12T11:55:26.360Z,4.03
2022-10-12T11:57:55.920Z,2.60
2022-10-12T12:00:27.945Z,6.18
2022-10-12T12:03:01.597Z,8.52
2022-10-12T12:05:33.193Z,6.22
2022-10-12T12:08:01.515Z,8.15
2022-10-12T12:10:53.642Z,4.68
2022-10-12T12:13:27.053Z,3.38
2022-10-12T12:16:30.832Z,8.20
2022-10-12T12:19:16.928Z,6.07
2022-10-12T12:22:24.624Z,11.73
2022-10-12T12:24:55.679Z,5.22
2022-10-12T12:27:32.733Z,7.20
2022-10-12T12:30:03.089Z,6.95
2022-10-12T12:32:45.189Z,5.13
2022-10-12T12:35:23.875Z,5.80
2022-10-12T12:38:04.754Z,19.05
2022-10-12T12:40:33.735Z,7.63
2022-10-12T12:43:36.599Z,5.43
2022-10-12T12:46:08.126Z,3.17
2022-10-12T12:49:02.501Z,4.82
2022-10-12T12:51:40.350Z,5.25
2022-10-12T12:54:16.452Z,4.90
2022-10-12T12:57:09.546Z,2.80
2022-10-12T13:00:14.501Z,10.95
2022-10-12T13:03:07.984Z,6.65
2022-10-12T13:06:13.640Z,3.67
2022-10-12T13:09:00.155Z,4.85
2022-10-12T13:11:47.295Z,10.88
2022-10-12T13:14:29.200Z,10.80
2022-10-12T13:20:00.858Z,5.75
2022-10-12T13:22:33.223Z,6.30
2022-10-12T13:25:05.361Z,5.70
2022-10-12T13:27:42.036Z,4.97
2022-10-12T13:30:20.484Z,2.20
2022-10-12T13:32:57.056Z,7.03
2022-10-12T13:35:33.523Z,8.60
2022-10-12T13:38:03.547Z,10.52
2022-10-12T13:40:34.873Z,6.13
2022-10-12T13:43:28.275Z,4.40
2022-10-12T13:45:56.969Z,4.97
2022-10-12T13:48:53.838Z,4.40
2022-10-12T13:51:27.039Z,3.10
2022-10-12T13:53:55.303Z,5.25
2022-10-12T13:56:26.246Z,4.18
2022-10-12T13:58:58.385Z,4.18
2022-10-12T14:01:26.866Z,3.97
2022-10-12T14:04:03.721Z,4.63
2022-10-12T14:06:34.364Z,4.65
2022-10-12T14:09:09.986Z,3.20
2022-10-12T14:11:39.697Z,3.88
2022-10-12T14:14:18.447Z,3.33
2022-10-12T14:16:46.549Z,5.70
2022-10-12T14:19:32.421Z,3.25
2022-10-12T14:22:02.423Z,4.72
2022-10-12T14:24:31.194Z,3.92
2022-10-12T14:27:01.100Z,5.45
2022-10-12T14:29:41.916Z,5.07
2022-10-12T14:32:41.199Z,8.55
2022-10-12T14:35:23.272Z,7.68
2022-10-12T14:37:53.234Z,4.25
2022-10-12T14:40:38.630Z,2.10
2022-10-12T14:43:09.603Z,7.35
2022-10-12T14:45:38.150Z,7.88
2022-10-12T14:48:11.096Z,4.28
2022-10-12T14:50:40.782Z,6.10
2022-10-12T14:53:13.574Z,4.10
2022-10-12T14:55:42.731Z,5.03
2022-10-12T14:58:15.884Z,3.30
2022-10-12T15:00:45.128Z,5.95
2022-10-12T15:03:13.611Z,4.53
2022-10-12T15:05:43.152Z,4.50
2022-10-12T15:08:11.227Z,2.05
2022-10-12T15:10:39.465Z,4.65
2022-10-12T15:13:07.664Z,6.88
2022-10-12T15:15:40.749Z,3.58
2022-10-12T15:18:09.056Z,6.97
2022-10-12T15:20:37.905Z,4.32
2022-10-12T15:23:07.789Z,5.40
2022-10-12T15:25:45.462Z,3.65
2022-10-12T15:28:13.796Z,6.50
2022-10-12T15:31:04.121Z,11.00
2022-10-12T15:33:30.894Z,5.13
2022-10-12T15:35:59.336Z,7.35
2022-10-12T15:38:29.025Z,2.50
2022-10-12T15:40:58.360Z,3.45
2022-10-12T15:43:27.029Z,3.55
2022-10-12T15:45:56.567Z,5.50
2022-10-12T15:48:24.919Z,6.05
2022-10-12T15:50:53.031Z,5.00
2022-10-12T15:53:24.843Z,3.67
2022-10-12T15:55:55.190Z,6.85
2022-10-12T15:58:23.411Z,11.75
2022-10-12T16:00:51.563Z,6.05
2022-10-12T16:03:25.951Z,11.60
2022-10-12T16:05:54.999Z,12.57
2022-10-12T16:08:23.468Z,4.95
2022-10-12T16:10:52.406Z,5.40
2022-10-12T16:13:22.197Z,13.23
2022-10-12T16:15:50.477Z,14.03
2022-10-12T16:18:18.903Z,10.50
2022-10-12T16:20:53.317Z,4.60
2022-10-12T16:23:27.379Z,8.80
2022-10-12T16:25:55.893Z,5.80
2022-10-12T16:28:26.058Z,13.75
2022-10-12T16:30:54.672Z,10.20
2022-10-12T16:33:23.466Z,7.17
2022-10-12T16:35:51.890Z,10.73
2022-10-12T16:38:21.193Z,11.83
2022-10-12T16:40:50.929Z,10.97
2022-10-12T16:43:22.258Z,13.13
2022-10-12T16:45:58.684Z,13.83
2022-10-12T16:48:26.921Z,7.90
2022-10-12T16:50:55.008Z,8.30
2022-10-12T16:53:23.121Z,9.17
2022-10-12T16:55:51.293Z,4.13
2022-10-12T16:58:19.480Z,4.73
2022-10-12T17:00:47.648Z,6.97
2022-10-12T17:03:17.335Z,12.40
2022-10-12T17:05:45.490Z,6.13
2022-10-12T17:08:15.684Z,10.93
2022-10-12T17:10:45.558Z,11.83
2022-10-12T17:13:14.678Z,11.87
2022-10-12T17:15:43.340Z,5.78
2022-10-12T17:18:11.670Z,9.20
2022-10-12T17:21:50.375Z,8.87
2022-10-12T17:24:25.926Z,10.30
2022-10-12T17:26:55.656Z,6.60
2022-10-12T17:29:25.068Z,11.13
2022-10-12T17:31:55.081Z,9.23
2022-10-12T17:34:25.662Z,7.10
2022-10-12T17:36:56.589Z,5.37
2022-10-12T17:39:27.165Z,6.60
2022-10-12T17:41:55.787Z,9.33
2022-10-12T17:44:24.123Z,11.87
2022-10-12T17:46:52.410Z,5.60
2022-10-12T17:49:24.725Z,3.67
2022-10-12T17:51:53.648Z,8.40
2022-10-12T17:54:23.529Z,9.00
2022-10-12T17:56:53.860Z,8.00
2022-10-12T17:59:22.458Z,7.67
2022-10-12T18:01:51.529Z,7.78
2022-10-12T18:04:21.837Z,7.40
2022-10-12T18:06:50.467Z,7.07
2022-10-12T18:09:19.222Z,11.67
2022-10-12T18:11:47.612Z,8.57
2022-10-12T18:14:17.226Z,8.90
2022-10-12T18:16:45.525Z,8.27
2022-10-12T18:19:14.237Z,9.47
2022-10-12T18:21:42.848Z,11.03
2022-10-12T18:24:17.634Z,9.30
2022-10-12T18:26:47.407Z,9.10
2022-10-12T18:29:17.332Z,12.60
2022-10-12T18:31:45.941Z,12.83
2022-10-12T18:34:14.203Z,5.77
2022-10-12T18:36:43.096Z,15.67
2022-10-12T18:39:11.810Z,10.37
2022-10-12T18:41:40.536Z,7.97
2022-10-12T18:44:10.932Z,10.23
2022-10-12T18:46:40.667Z,7.53
2022-10-12T18:49:10.412Z,6.23
2022-10-12T18:51:40.700Z,7.60
2022-10-12T18:54:12.887Z,11.63
2022-10-12T18:56:44.082Z,15.20
2022-10-12T18:59:13.441Z,8.30
2022-10-12T19:01:43.089Z,7.37
2022-10-12T19:04:13.525Z,6.57
2022-10-12T19:06:47.904Z,5.77
2022-10-12T19:09:18.939Z,10.43
2022-10-12T19:11:47.889Z,6.00
2022-10-12T19:14:18.595Z,4.30
2022-10-12T19:16:51.505Z,7.90
2022-10-12T19:19:28.489Z,5.37
2022-10-12T19:21:56.712Z,11.13
2022-10-12T19:24:24.967Z,7.53
2022-10-12T19:26:53.127Z,9.13
2022-10-12T19:29:21.355Z,7.70
2022-10-12T19:31:52.122Z,6.00
2022-10-12T19:34:22.082Z,6.00
2022-10-12T19:36:50.263Z,6.07
2022-10-12T19:39:21.609Z,7.07
2022-10-12T19:41:51.509Z,10.83
2022-10-12T19:44:20.468Z,5.60
2022-10-12T19:46:51.774Z,8.57
2022-10-12T19:49:21.051Z,13.43
2022-10-12T19:51:49.527Z,8.17
2022-10-12T19:54:18.352Z,8.87
2022-10-12T19:56:46.556Z,9.90
2022-10-12T19:59:14.875Z,8.10
2022-10-12T20:01:47.846Z,12.77
2022-10-12T20:04:18.375Z,8.63
2022-10-12T20:06:47.903Z,7.03
2022-10-12T20:09:16.213Z,12.90
2022-10-12T20:11:45.650Z,7.10
2022-10-12T20:14:13.799Z,5.17
2022-10-12T20:16:42.008Z,5.63
2022-10-12T20:19:10.280Z,6.93
2022-10-12T20:21:40.087Z,7.40
2022-10-12T20:24:10.208Z,4.93
2022-10-12T20:26:38.682Z,9.83
2022-10-12T20:29:06.847Z,7.27
2022-10-12T20:31:35.098Z,6.37
2022-10-12T20:34:03.255Z,12.17
2022-10-12T20:36:32.169Z,6.87
2022-10-12T20:39:02.069Z,7.17
2022-10-12T20:41:30.225Z,11.73
2022-10-12T20:43:59.399Z,7.23
2022-10-12T20:46:29.103Z,4.73
2022-10-12T20:48:59.165Z,6.27
2022-10-12T20:51:30.243Z,4.03
2022-10-12T20:54:00.977Z,6.67
2022-10-12T20:56:31.738Z,6.43
2022-10-12T20:59:00.291Z,8.10
2022-10-12T21:01:28.813Z,7.10
2022-10-12T21:03:57.320Z,6.57
2022-10-12T21:06:25.609Z,6.23
2022-10-12T21:08:54.907Z,6.07
2022-10-12T21:11:23.974Z,6.13
2022-10-12T21:13:53.810Z,8.47
2022-10-12T21:16:22.081Z,6.20
2022-10-12T21:18:53.976Z,4.97
2022-10-12T21:21:22.594Z,6.03
2022-10-12T21:23:54.608Z,8.03
2022-10-12T21:26:24.445Z,5.70
2022-10-12T21:28:54.148Z,5.90
2022-10-12T21:31:23.413Z,6.57
2022-10-12T21:33:52.717Z,3.90
2022-10-12T21:36:22.496Z,5.33
2022-10-12T21:38:51.702Z,6.83
2022-10-12T21:41:21.960Z,6.83
2022-10-12T21:43:51.104Z,7.50
2022-10-12T21:46:22.821Z,7.57
2022-10-12T21:48:52.346Z,4.10
2022-10-12T21:51:21.972Z,4.97
2022-10-12T21:53:50.800Z,6.53
2022-10-12T21:56:21.185Z,4.50
2022-10-12T21:58:50.810Z,4.07
2022-10-12T22:01:22.151Z,8.47
2022-10-12T22:03:54.481Z,9.17
2022-10-12T22:06:23.935Z,4.47
2022-10-12T22:08:54.179Z,4.27
2022-10-12T22:11:22.717Z,8.40
2022-10-12T22:13:51.586Z,5.67
2022-10-12T22:16:21.581Z,4.67
2022-10-12T22:18:49.969Z,4.37
2022-10-12T22:21:19.684Z,13.40
2022-10-12T22:23:47.982Z,10.83
2022-10-12T22:26:18.113Z,10.40
2022-10-12T22:28:46.525Z,5.77
2022-10-12T22:31:17.848Z,5.10
2022-10-12T22:33:47.933Z,6.23
2022-10-12T22:36:16.497Z,9.23
2022-10-12T22:38:45.515Z,9.90
2022-10-12T22:41:15.377Z,6.40
2022-10-12T22:43:43.665Z,6.73
2022-10-12T22:46:12.183Z,5.27
2022-10-12T22:48:40.680Z,5.73
2022-10-12T22:51:10.505Z,7.27
2022-10-12T22:53:39.416Z,7.90
2022-10-12T22:56:09.227Z,6.03
2022-10-12T22:58:37.500Z,5.47
2022-10-12T23:01:07.510Z,8.37
2022-10-12T23:03:36.802Z,5.20
2022-10-12T23:06:05.745Z,8.97
2022-10-12T23:08:35.646Z,6.03
2022-10-12T23:11:06.082Z,7.87
2022-10-12T23:13:35.214Z,5.03
2022-10-12T23:16:04.617Z,8.13
2022-10-12T23:18:33.505Z,5.47
2022-10-12T23:21:01.971Z,5.73
2022-10-12T23:23:30.299Z,7.37
2022-10-12T23:26:05.334Z,4.87
2022-10-12T23:28:33.670Z,10.00
2022-10-12T23:31:04.459Z,6.83
2022-10-12T23:33:32.762Z,4.70
2022-10-12T23:36:05.610Z,6.40
2022-10-12T23:38:36.266Z,6.20
2022-10-12T23:41:06.446Z,5.80
2022-10-12T23:43:35.359Z,6.00
2022-10-12T23:46:03.715Z,4.77
2022-10-12T23:48:32.593Z,8.30
2022-10-12T23:51:00.850Z,7.03
2022-10-12T23:53:32.397Z,4.77
2022-10-12T23:56:00.686Z,10.00
2022-10-12T23:58:30.413Z,7.17
